| time (UTC) | temp F | wind direction | speed MPH | gust MPH | rain 1hr in | rain 24hr in | rain mn in | humidity % | barometer mb |
| 20260509023036 | 61 | 327 | 1.0 | 3.0 | 0.00 | 0.00 | 0.00 | 77 | |
| 20260509022016 | 62 | 6 | 1.0 | 2.0 | 0.00 | 0.00 | 0.00 | 75 | |
| 20260509021017 | 60 | 297 | 3.0 | 5.0 | 0.00 | 0.00 | 0.00 | 78 | |
| 20260509020016 | 61 | 13 | 0.0 | 1.0 | 0.00 | 0.00 | 0.00 | 76 | |
| 20260509015017 | 61 | 134 | 0.0 | 0.0 | 0.00 | 0.00 | 0.00 | 75 | |
| 20260509014018 | 62 | 89 | 0.0 | 0.0 | 0.00 | 0.00 | 0.00 | 74 | |
| 20260509013016 | 65 | 53 | 1.0 | 2.0 | 0.00 | 0.00 | 0.00 | 71 | |
| 20260509012037 | 61 | 60 | 1.0 | 2.0 | 0.00 | 0.00 | 0.00 | 78 | |
| 20260509011017 | 62 | 10 | 1.0 | 2.0 | 0.00 | 0.00 | 0.00 | 77 | |
| 20260509010017 | 62 | 356 | 1.0 | 3.0 | 0.00 | 0.00 | 0.00 | 77 | |
| 20260509005017 | 62 | 296 | 2.0 | 4.0 | 0.00 | 0.00 | 0.00 | 76 | |
| 20260509004017 | 62 | 13 | 1.0 | 3.0 | 0.00 | 0.00 | 0.00 | 76 | |
| 20260509003017 | 63 | 88 | 0.0 | 0.0 | 0.00 | 0.00 | 0.00 | 75 | |
| 20260509002037 | 63 | 175 | 0.0 | 0.0 | 0.00 | 0.00 | 0.00 | 74 | |
| 20260509001017 | 64 | 134 | 0.0 | 0.0 | 0.00 | 0.00 | 0.00 | 73 | |
| 20260509000017 | 64 | 0.0 | 0.0 | 0.00 | 0.00 | 0.00 | 73 | ||
| 20260508235016 | 64 | 0.0 | 0.0 | 0.00 | 0.00 | 0.00 | 73 | ||
| 20260508234017 | 65 | 0.0 | 0.0 | 0.00 | 0.00 | 0.00 | 73 | ||
| 20260508233018 | 65 | 0.0 | 0.0 | 0.00 | 0.00 | 0.00 | 72 | ||
| 20260508232016 | 66 | 89 | 0.0 | 1.0 | 0.00 | 0.00 | 0.00 | 71 | |
| 20260508231017 | 67 | 179 | 0.0 | 0.0 | 0.00 | 0.00 | 0.00 | 70 | |
| 20260508230017 | 68 | 89 | 0.0 | 0.0 | 0.00 | 0.00 | 0.00 | 69 | |
| 20260508225017 | 69 | 89 | 0.0 | 0.0 | 0.00 | 0.00 | 0.00 | 69 | |
| 20260508224017 | 70 | 178 | 0.0 | 1.0 | 0.00 | 0.00 | 0.00 | 69 | |
| 20260508223016 | 70 | 282 | 1.0 | 3.0 | 0.00 | 0.00 | 0.00 | 69 | |
| 20260508222017 | 70 | 197 | 0.0 | 1.0 | 0.00 | 0.00 | 0.00 | 68 | |
| 20260508221037 | 71 | 196 | 1.0 | 2.0 | 0.00 | 0.00 | 0.00 | 68 | |
| 20260508220017 | 71 | 186 | 1.0 | 3.0 | 0.00 | 0.00 | 0.00 | 67 | |
| 20260508215017 | 71 | 190 | 2.0 | 3.0 | 0.00 | 0.00 | 0.00 | 67 | |
| 20260508214016 | 72 | 192 | 2.0 | 5.0 | 0.00 | 0.00 | 0.00 | 66 | |
| 20260508213017 | 72 | 190 | 2.0 | 4.0 | 0.00 | 0.00 | 0.00 | 66 | |
| 20260508212018 | 72 | 182 | 2.0 | 4.0 | 0.00 | 0.00 | 0.00 | 66 | |
| 20260508211016 | 72 | 190 | 3.0 | 6.0 | 0.00 | 0.00 | 0.00 | 66 | |
| 20260508210017 | 72 | 176 | 2.0 | 4.0 | 0.00 | 0.00 | 0.00 | 66 | |
| 20260508205016 | 72 | 181 | 2.0 | 4.0 | 0.00 | 0.00 | 0.00 | 66 | |
| 20260508204017 | 72 | 177 | 2.0 | 5.0 | 0.00 | 0.00 | 0.00 | 65 | |
| 20260508203017 | 73 | 203 | 2.0 | 5.0 | 0.00 | 0.00 | 0.00 | 65 | |
| 20260508202016 | 74 | 182 | 3.0 | 5.0 | 0.00 | 0.00 | 0.00 | 64 | |
| 20260508201017 | 74 | 206 | 1.0 | 3.0 | 0.00 | 0.00 | 0.00 | 64 | |
| 20260508200017 | 75 | 196 | 2.0 | 5.0 | 0.00 | 0.00 | 0.00 | 63 | |
| 20260508195017 | 74 | 196 | 2.0 | 4.0 | 0.00 | 0.00 | 0.00 | 62 | |
| 20260508194017 | 73 | 198 | 3.0 | 4.0 | 0.00 | 0.00 | 0.00 | 64 | |
| 20260508193037 | 75 | 185 | 5.0 | 12.0 | 0.00 | 0.00 | 0.00 | 63 | |
| 20260508192017 | 76 | 193 | 4.0 | 7.0 | 0.00 | 0.00 | 0.00 | 62 | |
| 20260508191018 | 79 | 186 | 5.0 | 11.0 | 0.00 | 0.00 | 0.00 | 60 | |
| 20260508190037 | 82 | 192 | 4.0 | 8.0 | 0.00 | 0.00 | 0.00 | 61 | |
| 20260508185017 | 83 | 182 | 4.0 | 9.0 | 0.00 | 0.00 | 0.00 | 62 | |
| 20260508184016 | 83 | 202 | 3.0 | 5.0 | 0.00 | 0.00 | 0.00 | 64 | |
| 20260508183017 | 80 | 195 | 4.0 | 10.0 | 0.00 | 0.00 | 0.00 | 65 | |
| 20260508182017 | 79 | 183 | 4.0 | 7.0 | 0.00 | 0.00 | 0.00 | 64 | |
| 20260508181017 | 79 | 190 | 4.0 | 10.0 | 0.00 | 0.00 | 0.00 | 65 | |
| 20260508180017 | 78 | 204 | 4.0 | 10.0 | 0.00 | 0.00 | 0.00 | 65 | |
| 20260508175016 | 78 | 193 | 3.0 | 11.0 | 0.00 | 0.00 | 0.00 | 68 | |
| 20260508174017 | 76 | 193 | 3.0 | 7.0 | 0.00 | 0.00 | 0.00 | 69 | |
| 20260508173017 | 74 | 210 | 3.0 | 6.0 | 0.00 | 0.00 | 0.00 | 68 | |
| 20260508172017 | 76 | 192 | 3.0 | 6.0 | 0.00 | 0.00 | 0.00 | 61 | |
| 20260508171017 | 76 | 188 | 4.0 | 10.0 | 0.00 | 0.00 | 0.00 | 65 | |
| 20260508170017 | 76 | 188 | 4.0 | 8.0 | 0.00 | 0.00 | 0.00 | 67 | |
| 20260508165017 | 76 | 206 | 3.0 | 6.0 | 0.00 | 0.00 | 0.00 | 67 | |
| 20260508164016 | 75 | 200 | 4.0 | 9.0 | 0.00 | 0.00 | 0.00 | 69 | |
| 20260508163017 | 74 | 190 | 4.0 | 11.0 | 0.00 | 0.00 | 0.00 | 69 | |
| 20260508162017 | 73 | 191 | 4.0 | 9.0 | 0.00 | 0.00 | 0.00 | 70 | |
| 20260508161016 | 73 | 184 | 5.0 | 10.0 | 0.00 | 0.00 | 0.00 | 69 | |
| 20260508160017 | 73 | 177 | 4.0 | 10.0 | 0.00 | 0.00 | 0.00 | 70 | |
| 20260508155017 | 73 | 197 | 4.0 | 7.0 | 0.00 | 0.00 | 0.00 | 70 | |
| 20260508154016 | 73 | 189 | 4.0 | 9.0 | 0.00 | 0.00 | 0.00 | 70 | |
| 20260508153057 | 74 | 211 | 3.0 | 7.0 | 0.00 | 0.00 | 0.00 | 70 | |
| 20260508152037 | 73 | 181 | 4.0 | 8.0 | 0.00 | 0.00 | 0.00 | 72 | |
| 20260508151017 | 72 | 198 | 4.0 | 6.0 | 0.00 | 0.00 | 0.00 | 71 | |
| 20260508150017 | 72 | 194 | 3.0 | 8.0 | 0.00 | 0.00 | 0.00 | 72 | |
| 20260508145017 | 71 | 189 | 3.0 | 8.0 | 0.00 | 0.00 | 0.00 | 74 | |
| 20260508144017 | 70 | 227 | 2.0 | 5.0 | 0.00 | 0.00 | 0.00 | 73 | |
| 20260508143017 | 69 | 188 | 3.0 | 6.0 | 0.00 | 0.00 | 0.00 | 74 | |
| 20260508142036 | 67 | 192 | 3.0 | 6.0 | 0.00 | 0.00 | 0.00 | 78 | |
| 20260508141017 | 62 | 191 | 3.0 | 6.0 | 0.00 | 0.00 | 0.00 | 82 | |
| 20260508140037 | 60 | 188 | 4.0 | 8.0 | 0.00 | 0.00 | 0.00 | 81 | |
| 20260508135017 | 59 | 218 | 3.0 | 5.0 | 0.00 | 0.00 | 0.00 | 81 | |
| 20260508134016 | 58 | 204 | 3.0 | 7.0 | 0.00 | 0.00 | 0.00 | 83 | |
| 20260508133016 | 57 | 187 | 3.0 | 6.0 | 0.00 | 0.00 | 0.00 | 83 | |
| 20260508132017 | 56 | 188 | 3.0 | 7.0 | 0.00 | 0.00 | 0.00 | 83 | |
| 20260508131017 | 56 | 187 | 5.0 | 8.0 | 0.00 | 0.00 | 0.00 | 83 | |
| 20260508130037 | 55 | 188 | 3.0 | 6.0 | 0.00 | 0.00 | 0.00 | 84 | |
| 20260508125037 | 54 | 195 | 2.0 | 4.0 | 0.00 | 0.00 | 0.00 | 85 | |
| 20260508124017 | 53 | 180 | 2.0 | 4.0 | 0.00 | 0.00 | 0.00 | 86 | |
| 20260508123017 | 52 | 183 | 2.0 | 4.0 | 0.00 | 0.00 | 0.00 | 85 | |
| 20260508122017 | 51 | 174 | 2.0 | 5.0 | 0.00 | 0.00 | 0.00 | 85 | |
| 20260508121016 | 50 | 184 | 1.0 | 4.0 | 0.00 | 0.00 | 0.00 | 84 | |
| 20260508120017 | 50 | 177 | 2.0 | 4.0 | 0.00 | 0.00 | 0.00 | 82 | |
| 20260508115016 | 51 | 177 | 1.0 | 3.0 | 0.00 | 0.00 | 0.00 | 80 | |
| 20260508114017 | 51 | 135 | 0.0 | 1.0 | 0.00 | 0.00 | 0.00 | 81 | |
| 20260508113017 | 51 | 161 | 0.0 | 1.0 | 0.00 | 0.00 | 0.00 | 81 | |
| 20260508112057 | 50 | 167 | 0.0 | 1.0 | 0.00 | 0.00 | 0.00 | 82 | |
| 20260508111017 | 49 | 171 | 0.0 | 1.0 | 0.00 | 0.00 | 0.00 | 84 | |
| 20260508110016 | 49 | 146 | 0.0 | 1.0 | 0.00 | 0.00 | 0.00 | 84 | |
| 20260508105016 | 49 | 0.0 | 0.0 | 0.00 | 0.00 | 0.00 | 84 | ||
| 20260508104037 | 49 | 166 | 0.0 | 1.0 | 0.00 | 0.00 | 0.00 | 84 | |
| 20260508103018 | 49 | 111 | 0.0 | 1.0 | 0.00 | 0.00 | 0.00 | 84 | |
| 20260508102017 | 49 | 152 | 0.0 | 1.0 | 0.00 | 0.00 | 0.00 | 84 | |
| 20260508101037 | 49 | 134 | 0.0 | 0.0 | 0.00 | 0.00 | 0.00 | 84 | |
| 20260508100017 | 49 | 112 | 0.0 | 0.0 | 0.00 | 0.00 | 0.00 | 84 | |
| 20260508095017 | 49 | 173 | 1.0 | 1.0 | 0.00 | 0.00 | 0.00 | 84 | |
| 20260508094017 | 48 | 178 | 0.0 | 1.0 | 0.00 | 0.00 | 0.00 | 84 | |
| 20260508093016 | 48 | 174 | 0.0 | 1.0 | 0.00 | 0.00 | 0.00 | 84 | |
| 20260508092057 | 48 | 172 | 0.0 | 1.0 | 0.00 | 0.00 | 0.00 | 84 | |
| 20260508091017 | 47 | 178 | 1.0 | 1.0 | 0.00 | 0.00 | 0.00 | 84 | |
| 20260508090017 | 47 | 178 | 0.0 | 1.0 | 0.00 | 0.00 | 0.00 | 84 | |
| 20260508085057 | 46 | 177 | 0.0 | 1.0 | 0.00 | 0.00 | 0.00 | 84 | |
| 20260508084037 | 46 | 52 | 0.0 | 1.0 | 0.00 | 0.00 | 0.00 | 84 | |
| 20260508083017 | 46 | 88 | 0.0 | 1.0 | 0.00 | 0.00 | 0.00 | 85 | |
| 20260508082018 | 45 | 89 | 0.0 | 1.0 | 0.00 | 0.00 | 0.00 | 84 | |
| 20260508081017 | 45 | 134 | 0.0 | 0.0 | 0.00 | 0.00 | 0.00 | 84 | |
| 20260508080017 | 45 | 134 | 0.0 | 1.0 | 0.00 | 0.00 | 0.00 | 83 | |
| 20260508075017 | 45 | 134 | 0.0 | 1.0 | 0.00 | 0.00 | 0.00 | 83 | |
| 20260508074017 | 45 | 134 | 0.0 | 0.0 | 0.00 | 0.00 | 0.00 | 83 | |
| 20260508073017 | 45 | 134 | 0.0 | 0.0 | 0.00 | 0.00 | 0.00 | 82 | |
| 20260508072016 | 46 | 134 | 0.0 | 0.0 | 0.00 | 0.00 | 0.00 | 82 | |
| 20260508071017 | 46 | 134 | 0.0 | 0.0 | 0.00 | 0.00 | 0.00 | 81 | |
| 20260508070017 | 47 | 134 | 0.0 | 0.0 | 0.00 | 0.00 | 0.00 | 81 | |
| 20260508065016 | 47 | 162 | 0.0 | 2.0 | 0.00 | 0.00 | 0.00 | 80 | |
| 20260508064017 | 47 | 148 | 0.0 | 1.0 | 0.00 | 0.00 | 0.00 | 81 | |
| 20260508063016 | 47 | 162 | 1.0 | 2.0 | 0.00 | 0.00 | 0.00 | 83 | |
| 20260508062017 | 47 | 145 | 0.0 | 2.0 | 0.00 | 0.00 | 0.00 | 83 | |
| 20260508061018 | 47 | 168 | 1.0 | 2.0 | 0.00 | 0.00 | 0.00 | 83 | |
| 20260508060037 | 47 | 163 | 0.0 | 2.0 | 0.00 | 0.00 | 0.00 | 82 | |
| 20260508055017 | 47 | 175 | 1.0 | 2.0 | 0.00 | 0.00 | 0.00 | 83 | |
| 20260508054057 | 47 | 176 | 1.0 | 3.0 | 0.00 | 0.00 | 0.00 | 82 | |
| 20260508053016 | 47 | 175 | 1.0 | 2.0 | 0.00 | 0.00 | 0.00 | 82 | |
| 20260508052037 | 47 | 168 | 1.0 | 2.0 | 0.00 | 0.00 | 0.00 | 82 | |
| 20260508051017 | 47 | 167 | 1.0 | 2.0 | 0.00 | 0.00 | 0.00 | 81 | |
| 20260508050017 | 48 | 172 | 1.0 | 2.0 | 0.00 | 0.00 | 0.00 | 81 | |
| 20260508045017 | 48 | 172 | 1.0 | 2.0 | 0.00 | 0.00 | 0.00 | 81 | |
| 20260508044036 | 48 | 164 | 1.0 | 2.0 | 0.00 | 0.00 | 0.00 | 80 | |
| 20260508043037 | 49 | 161 | 1.0 | 1.0 | 0.00 | 0.00 | 0.00 | 77 | |
| 20260508042017 | 48 | 134 | 0.0 | 1.0 | 0.00 | 0.00 | 0.00 | 78 | |
| 20260508041016 | 48 | 145 | 0.0 | 1.0 | 0.00 | 0.00 | 0.00 | 79 | |
| 20260508040018 | 48 | 0.0 | 0.0 | 0.00 | 0.00 | 0.00 | 80 | ||
| 20260508035016 | 47 | 0.0 | 0.0 | 0.00 | 0.00 | 0.00 | 81 | ||
| 20260508034037 | 48 | 134 | 0.0 | 0.0 | 0.00 | 0.00 | 0.00 | 81 | |
| 20260508033057 | 48 | 175 | 0.0 | 1.0 | 0.00 | 0.00 | 0.00 | 80 | |
| 20260508032036 | 49 | 174 | 0.0 | 1.0 | 0.00 | 0.00 | 0.00 | 80 | |
| 20260508031017 | 49 | 92 | 0.0 | 1.0 | 0.00 | 0.00 | 0.00 | 80 | |
| 20260508030016 | 50 | 179 | 1.0 | 2.0 | 0.00 | 0.00 | 0.00 | 80 | |
| 20260508025018 | 50 | 178 | 1.0 | 1.0 | 0.00 | 0.00 | 0.00 | 80 | |
| 20260508024017 | 50 | 134 | 0.0 | 1.0 | 0.00 | 0.00 | 0.00 | 80 |